Terminal Aerodrome Forecast
Issued by NWS

Home | Current Version | Previous Version | Text Only | Print | Product List | Glossary On
Versions: 1 2 3 4 5 6 7 8 9 10 11 12 13 14 15 16
000
FTUS45 KRIW 271720
TAFCOD
TAF
KCOD 271720Z 2718/2818 VRB06KT P6SM BKN150
     FM272200 VRB11KT P6SM VCSH SCT035 OVC060
     FM280200 VRB06KT P6SM SCT040 BKN120
     FM280700 24011KT P6SM SCT150
      AMD LTD TO CLD VIS AND WIND=

USA.gov is the U.S. government's official web portal to all federal, state and local government web resources and services.